Arklow Wind — EIKZ — position and weather

sailwx.info

Track history (hours):
 
Tides and Currents Weather Stations Pressure Air Temp Water Temp Dewpoint Dewpoint Depression Visibility Wind Speed Wind Dir Waves Ship Positions

Arklow Wind

Last reported at 2015-May-27 08:33 UTC. Time now 2015-May-30 12:37 UTC.
Position N 35°54' E 014°38'.

Length 136 m; draft 8.3 m.

Type: Cargo ship. MMSI: 250506000.

Date/timePositionNaut miles runAvg speedWind from/ knotsBaromVisibWave heightAir tempDewpointWater temp
2015-May-27 08:33N 35°54' E 014°38'4 1.4
2015-May-27 05:29N 35°50' E 014°36'0 0.0
2015-May-27 04:20N 35°50' E 014°36'0 0.1
2015-May-27 03:32N 35°50' E 014°36'0 0.0
2015-May-27 02:33N 35°50' E 014°36'0 0.0
2015-May-27 01:33N 35°50' E 014°36'0 0.4
2015-May-27 00:33N 35°50' E 014°36'10 9.6
2015-May-26 23:33N 35°59' E 014°31'1212.3
2015-May-26 22:33N 36°06' E 014°19'1212.2
2015-May-26 21:33N 36°12' E 014°06'1212.1
2015-May-26 20:33N 36°17' E 013°52'1212.3
2015-May-26 19:33N 36°23' E 013°38'1212.1
2015-May-26 18:31N 36°28' E 013°25'  
2015-May-19 15:18N 35°49' W 000°10'0 0.0
2015-May-19 14:30N 35°49' W 000°10'4 0.7
2015-May-19 09:08N 35°52' W 000°13'18 3.1
2015-May-19 03:10N 36°07' W 000°01'3 3.9
2015-May-19 02:27N 36°09' E 000°02'1 0.8
2015-May-19 01:09N 36°08' E 000°01'1 1.6
2015-May-19 00:33N 36°07' E 000°00'10 2.0
2015-May-18 19:27N 36°01' W 000°10'1 1.6
2015-May-18 18:33N 35°60' W 000°11'3 1.8
2015-May-18 16:33N 35°57' W 000°13'6 5.6
2015-May-18 15:33N 35°51' W 000°14'1111.1
2015-May-18 14:33N 35°60' W 000°22'8 7.9
2015-May-18 13:33N 35°55' W 000°30'12 0.9
2015-May-18 00:17N 35°45' W 000°37'0 0.0
2015-May-17 23:28N 35°45' W 000°37'0 0.0
2015-May-17 22:22N 35°45' W 000°37'0 0.1
2015-May-17 21:16N 35°45' W 000°37'0 0.0
2015-May-17 19:28N 35°45' W 000°37'0 0.0
2015-May-17 18:28N 35°45' W 000°37'0 0.0
2015-May-17 17:28N 35°45' W 000°37'0 0.0
2015-May-17 16:28N 35°45' W 000°37'0 0.0
2015-May-17 15:28N 35°45' W 000°37'  
Track history (hours):
 
Tides and Currents Weather Stations Pressure Air Temp Water Temp Dewpoint Dewpoint Depression Visibility Wind Speed Wind Dir Waves Ship Positions

Arklow Wind

Last reported at 2015-May-27 08:33 UTC. Time now 2015-May-30 12:37 UTC.
Position N 35°54' E 014°38'.

Length 136 m; draft 8.3 m.

Type: Cargo ship. MMSI: 250506000.

Date/timePositionNaut miles runAvg speedWind from/ knotsBaromVisibWave heightAir tempDewpointWater temp
2015-May-27 08:33N 35°54' E 014°38'4 1.4
2015-May-27 05:29N 35°50' E 014°36'0 0.0
2015-May-27 04:20N 35°50' E 014°36'0 0.1
2015-May-27 03:32N 35°50' E 014°36'0 0.0
2015-May-27 02:33N 35°50' E 014°36'0 0.0
2015-May-27 01:33N 35°50' E 014°36'0 0.4
2015-May-27 00:33N 35°50' E 014°36'10 9.6
2015-May-26 23:33N 35°59' E 014°31'1212.3
2015-May-26 22:33N 36°06' E 014°19'1212.2
2015-May-26 21:33N 36°12' E 014°06'1212.1
2015-May-26 20:33N 36°17' E 013°52'1212.3
2015-May-26 19:33N 36°23' E 013°38'1212.1
2015-May-26 18:31N 36°28' E 013°25'  
2015-May-19 15:18N 35°49' W 000°10'0 0.0
2015-May-19 14:30N 35°49' W 000°10'4 0.7
2015-May-19 09:08N 35°52' W 000°13'18 3.1
2015-May-19 03:10N 36°07' W 000°01'3 3.9
2015-May-19 02:27N 36°09' E 000°02'1 0.8
2015-May-19 01:09N 36°08' E 000°01'1 1.6
2015-May-19 00:33N 36°07' E 000°00'10 2.0
2015-May-18 19:27N 36°01' W 000°10'1 1.6
2015-May-18 18:33N 35°60' W 000°11'3 1.8
2015-May-18 16:33N 35°57' W 000°13'6 5.6
2015-May-18 15:33N 35°51' W 000°14'1111.1
2015-May-18 14:33N 35°60' W 000°22'8 7.9
2015-May-18 13:33N 35°55' W 000°30'12 0.9
2015-May-18 00:17N 35°45' W 000°37'0 0.0
2015-May-17 23:28N 35°45' W 000°37'0 0.0
2015-May-17 22:22N 35°45' W 000°37'0 0.1
2015-May-17 21:16N 35°45' W 000°37'0 0.0
2015-May-17 19:28N 35°45' W 000°37'0 0.0
2015-May-17 18:28N 35°45' W 000°37'0 0.0
2015-May-17 17:28N 35°45' W 000°37'0 0.0
2015-May-17 16:28N 35°45' W 000°37'0 0.0
2015-May-17 15:28N 35°45' W 000°37'  

Dump ship's entire track history